Aviation Digital Data Service (ADDS)

Output produced by METARs form (2040 UTC 17 June 2019)
found at http://www.aviationweather.gov/metar/data/
 
Forecast for: NZAA (AUCKLAND INTL AR, NZ)
Text: TAF NZAA 171705Z 1718/1818 19008KT 9999 -SHRA SCT030
Forecast period: 1800 UTC 17 June 2019 to 1800 UTC 18 June 2019
Forecast type: FROM: standard forecast or significant change
Winds: from the S (190 degrees) at 9 MPH (8 knots; 4.1 m/s)
Visibility: 6 or more miles 10+ km)
Ceiling: at least 12,000 feet AGL
Clouds: scattered clouds at 3000 feet AGL
Weather: -SHRA  (light rain showers)